Time;durP1;ratioP1;P1;durP2;ratioP2;P2;SDS_P1;SDS_P2;PMS_P1;PMS_P2;Temp;Humidity;BMP_temperature;BMP_pressure;BME280_temperature;BME280_humidity;BME280_pressure;Samples;Min_cycle;Max_cycle;Signal;HPM_P1;HPM_P2
2023/04/09 00:01:05;;;;;;;28.77;16.73;;;;;;;;;;4983311;28;20645;-66
2023/04/09 00:03:31;;;;;;;26.83;15.80;;;;;;;;;;4984061;28;20261;-66
2023/04/09 00:05:56;;;;;;;25.80;15.63;;;;;;;;;;5004748;28;20188;-65
2023/04/09 00:08:22;;;;;;;30.10;17.30;;;;;;;;;;4984903;28;20176;-66
2023/04/09 00:10:48;;;;;;;30.43;17.10;;;;;;;;;;4986466;28;20259;-66
2023/04/09 00:13:13;;;;;;;29.33;17.27;;;;;;;;;;4987314;28;20271;-66
2023/04/09 00:15:38;;;;;;;28.83;16.87;;;;;;;;;;4986391;28;20204;-66
2023/04/09 00:18:03;;;;;;;30.47;16.90;;;;;;;;;;4985382;28;20173;-66
2023/04/09 00:20:29;;;;;;;30.00;16.37;;;;;;;;;;4991223;28;20175;-66
2023/04/09 00:22:55;;;;;;;29.57;17.03;;;;;;;;;;4990960;28;20199;-67
2023/04/09 00:25:20;;;;;;;33.67;16.97;;;;;;;;;;4991413;28;20622;-66
2023/04/09 00:27:45;;;;;;;29.23;17.20;;;;;;;;;;4988480;28;20654;-65
2023/04/09 00:30:11;;;;;;;29.50;16.87;;;;;;;;;;4989964;28;20179;-66
2023/04/09 00:32:36;;;;;;;25.20;15.83;;;;;;;;;;4991479;28;20207;-66
2023/04/09 00:35:01;;;;;;;26.33;16.10;;;;;;;;;;4991181;28;20708;-66
2023/04/09 00:37:26;;;;;;;24.90;15.60;;;;;;;;;;4989061;28;20184;-66
2023/04/09 00:39:51;;;;;;;28.00;15.97;;;;;;;;;;4986532;28;20195;-66
2023/04/09 00:42:17;;;;;;;30.07;16.60;;;;;;;;;;4985402;28;20196;-66
2023/04/09 00:44:42;;;;;;;27.77;16.77;;;;;;;;;;4979823;28;20247;-66
2023/04/09 00:47:07;;;;;;;25.77;16.13;;;;;;;;;;4988521;28;20183;-66
2023/04/09 00:49:32;;;;;;;29.67;16.93;;;;;;;;;;4989664;28;20184;-66
2023/04/09 00:51:57;;;;;;;26.93;17.37;;;;;;;;;;4991228;28;20203;-66
2023/04/09 00:54:23;;;;;;;28.00;16.23;;;;;;;;;;4985471;28;20563;-67
2023/04/09 00:56:48;;;;;;;26.43;15.57;;;;;;;;;;4977625;28;20187;-66
2023/04/09 00:59:13;;;;;;;27.70;16.53;;;;;;;;;;4991300;28;20171;-66
2023/04/09 01:01:39;;;;;;;24.73;15.23;;;;;;;;;;4991628;28;20200;-66
2023/04/09 01:04:04;;;;;;;24.23;15.33;;;;;;;;;;4991591;28;20192;-66
2023/04/09 01:06:32;;;;;;;26.17;15.97;;;;;;;;;;4991600;28;20175;-66
2023/04/09 01:09:00;;;;;;;25.77;16.07;;;;;;;;;;4999766;28;20322;-66
2023/04/09 01:11:25;;;;;;;28.17;16.07;;;;;;;;;;4991349;28;20214;-66
2023/04/09 01:13:57;;;;;;;30.63;17.30;;;;;;;;;;4992410;28;20206;-66
2023/04/09 01:16:23;;;;;;;28.17;16.37;;;;;;;;;;4996701;28;20179;-66
2023/04/09 01:19:00;;;;;;;26.47;16.73;;;;;;;;;;5004340;28;20232;-66
2023/04/09 01:21:30;;;;;;;27.70;15.53;;;;;;;;;;4997220;28;20180;-67
2023/04/09 01:24:13;;;;;;;28.83;16.73;;;;;;;;;;4998642;28;20286;-66
2023/04/09 01:26:54;;;;;;;28.17;16.97;;;;;;;;;;5003318;28;20526;-66
2023/04/09 01:29:20;;;;;;;26.37;14.93;;;;;;;;;;4995590;28;20719;-66
2023/04/09 01:31:47;;;;;;;27.37;15.23;;;;;;;;;;5001745;28;20199;-66
2023/04/09 01:34:13;;;;;;;31.63;16.03;;;;;;;;;;4999358;28;20346;-66
2023/04/09 01:36:39;;;;;;;29.57;15.77;;;;;;;;;;4996206;28;20262;-66
2023/04/09 01:39:05;;;;;;;30.23;16.53;;;;;;;;;;5005698;28;20179;-66
2023/04/09 01:41:31;;;;;;;30.53;16.63;;;;;;;;;;4992767;28;20180;-66
2023/04/09 01:44:00;;;;;;;28.53;16.93;;;;;;;;;;4993308;28;20191;-65
2023/04/09 01:46:26;;;;;;;31.07;17.10;;;;;;;;;;5002133;28;20257;-66
2023/04/09 01:48:51;;;;;;;30.27;17.47;;;;;;;;;;4993082;28;20204;-66
2023/04/09 01:51:16;;;;;;;27.23;15.87;;;;;;;;;;4994606;28;20650;-66
2023/04/09 01:53:42;;;;;;;29.03;16.43;;;;;;;;;;5000010;28;20179;-66
2023/04/09 01:56:08;;;;;;;29.63;16.50;;;;;;;;;;4994538;28;20195;-66
2023/04/09 01:58:33;;;;;;;30.33;15.97;;;;;;;;;;4994469;28;20180;-66
2023/04/09 02:01:04;;;;;;;26.87;15.43;;;;;;;;;;4989991;28;20653;-66
2023/04/09 02:03:38;;;;;;;32.17;16.83;;;;;;;;;;5002501;28;20238;-66
2023/04/09 02:06:10;;;;;;;29.47;16.37;;;;;;;;;;4993416;28;20280;-66
2023/04/09 02:08:36;;;;;;;27.53;15.67;;;;;;;;;;4994315;28;20215;-66
2023/04/09 02:11:03;;;;;;;31.80;15.87;;;;;;;;;;4998684;28;20210;-66
2023/04/09 02:13:29;;;;;;;30.10;16.80;;;;;;;;;;4992223;28;20204;-66
2023/04/09 02:15:55;;;;;;;27.77;15.57;;;;;;;;;;4991124;28;20290;-66
2023/04/09 02:18:21;;;;;;;28.30;16.60;;;;;;;;;;4993557;28;20271;-66
2023/04/09 02:20:46;;;;;;;30.97;17.30;;;;;;;;;;5001959;28;20673;-66
2023/04/09 02:23:12;;;;;;;30.37;16.70;;;;;;;;;;4994168;28;20286;-66
2023/04/09 02:25:37;;;;;;;31.63;17.93;;;;;;;;;;4996468;28;20175;-65
2023/04/09 02:28:02;;;;;;;32.17;15.47;;;;;;;;;;4998890;28;20729;-66
2023/04/09 02:30:27;;;;;;;28.03;17.43;;;;;;;;;;4999849;28;20214;-67
2023/04/09 02:32:52;;;;;;;29.90;17.23;;;;;;;;;;4999512;28;20282;-67
2023/04/09 02:35:18;;;;;;;27.90;15.73;;;;;;;;;;4986337;28;20622;-67
2023/04/09 02:37:43;;;;;;;28.07;16.83;;;;;;;;;;4992464;28;20255;-67
2023/04/09 02:40:08;;;;;;;29.30;15.70;;;;;;;;;;4993325;28;20267;-67
2023/04/09 02:42:34;;;;;;;31.50;17.07;;;;;;;;;;5000571;28;20293;-66
2023/04/09 02:44:59;;;;;;;30.80;18.07;;;;;;;;;;4999650;28;20183;-66
2023/04/09 02:47:25;;;;;;;29.00;16.63;;;;;;;;;;4997406;28;20638;-67
2023/04/09 02:49:51;;;;;;;28.57;16.10;;;;;;;;;;4998588;28;20599;-66
2023/04/09 02:52:18;;;;;;;30.77;16.77;;;;;;;;;;5000574;28;20213;-66
2023/04/09 02:54:43;;;;;;;28.07;17.20;;;;;;;;;;4993481;28;20204;-66
2023/04/09 02:57:08;;;;;;;30.57;16.40;;;;;;;;;;5004696;28;20206;-66
2023/04/09 02:59:34;;;;;;;28.50;17.03;;;;;;;;;;4990106;28;20178;-66
2023/04/09 03:01:59;;;;;;;26.30;15.63;;;;;;;;;;5010305;23;20242;-76
2023/04/09 03:04:25;;;;;;;27.87;15.93;;;;;;;;;;4996428;28;20568;-76
2023/04/09 03:06:50;;;;;;;26.10;16.10;;;;;;;;;;4988881;28;20175;-76
2023/04/09 03:09:15;;;;;;;27.57;16.53;;;;;;;;;;4994005;28;20183;-76
2023/04/09 03:11:40;;;;;;;23.90;15.67;;;;;;;;;;4995736;28;20634;-76
2023/04/09 03:14:06;;;;;;;29.37;17.67;;;;;;;;;;4993262;28;20597;-76
2023/04/09 03:16:31;;;;;;;26.77;16.03;;;;;;;;;;4992478;28;20186;-76
2023/04/09 03:18:56;;;;;;;27.03;16.30;;;;;;;;;;4984606;28;20184;-76
2023/04/09 03:21:21;;;;;;;25.37;14.80;;;;;;;;;;4990153;28;20180;-76
2023/04/09 03:23:46;;;;;;;27.83;16.33;;;;;;;;;;4991335;28;20558;-76
2023/04/09 03:26:12;;;;;;;24.83;15.87;;;;;;;;;;4989888;28;20172;-76
2023/04/09 03:28:37;;;;;;;29.13;15.97;;;;;;;;;;4989712;28;20179;-75
2023/04/09 03:31:02;;;;;;;27.80;16.53;;;;;;;;;;4987359;28;20560;-76
2023/04/09 03:33:27;;;;;;;27.47;16.60;;;;;;;;;;4993711;28;20196;-76
2023/04/09 03:35:53;;;;;;;25.57;14.83;;;;;;;;;;4983706;28;20203;-76
2023/04/09 03:38:18;;;;;;;26.63;16.13;;;;;;;;;;4991217;28;20184;-76
2023/04/09 03:40:43;;;;;;;26.40;16.80;;;;;;;;;;4991777;28;20180;-76
2023/04/09 03:43:09;;;;;;;28.07;16.07;;;;;;;;;;4992043;28;20211;-76
2023/04/09 03:45:34;;;;;;;27.00;16.80;;;;;;;;;;4989301;28;20172;-76
2023/04/09 03:47:59;;;;;;;25.10;14.97;;;;;;;;;;4992367;28;20656;-76
2023/04/09 03:50:24;;;;;;;25.17;15.30;;;;;;;;;;4989686;28;20724;-75
2023/04/09 03:52:50;;;;;;;25.40;15.97;;;;;;;;;;4985136;28;20608;-76
2023/04/09 03:55:15;;;;;;;26.93;15.03;;;;;;;;;;4986672;28;20212;-76
2023/04/09 03:57:40;;;;;;;24.80;14.57;;;;;;;;;;4991066;28;20262;-76
2023/04/09 04:00:06;;;;;;;25.53;15.20;;;;;;;;;;4987665;28;20658;-76
2023/04/09 04:02:32;;;;;;;28.43;15.37;;;;;;;;;;4982475;28;20286;-76
2023/04/09 04:04:57;;;;;;;29.10;16.27;;;;;;;;;;4986203;28;20226;-76
2023/04/09 04:07:23;;;;;;;24.73;14.63;;;;;;;;;;4985235;28;20175;-76
2023/04/09 04:09:48;;;;;;;26.37;15.43;;;;;;;;;;4985813;28;20603;-76
2023/04/09 04:12:13;;;;;;;25.13;15.83;;;;;;;;;;4987945;28;20269;-76
2023/04/09 04:14:38;;;;;;;29.00;16.27;;;;;;;;;;4983775;28;20679;-76
2023/04/09 04:17:04;;;;;;;29.43;16.77;;;;;;;;;;4987998;28;20599;-74
2023/04/09 04:19:29;;;;;;;28.50;16.63;;;;;;;;;;4983917;28;20220;-74
2023/04/09 04:21:54;;;;;;;28.13;16.20;;;;;;;;;;4980556;28;20231;-74
2023/04/09 04:24:20;;;;;;;27.60;16.00;;;;;;;;;;4986875;28;20188;-75
2023/04/09 04:26:45;;;;;;;29.83;18.57;;;;;;;;;;4980240;28;20184;-74
2023/04/09 04:29:10;;;;;;;30.87;16.37;;;;;;;;;;4980667;28;20175;-75
2023/04/09 04:31:35;;;;;;;28.37;15.90;;;;;;;;;;4990842;28;20680;-74
2023/04/09 04:34:00;;;;;;;28.10;16.93;;;;;;;;;;4993079;28;20549;-74
2023/04/09 04:36:26;;;;;;;29.37;16.27;;;;;;;;;;4986485;28;20219;-74
2023/04/09 04:38:51;;;;;;;28.63;17.33;;;;;;;;;;4986920;28;20667;-75
2023/04/09 04:41:16;;;;;;;30.17;18.20;;;;;;;;;;4988444;28;20186;-74
2023/04/09 04:43:41;;;;;;;30.33;18.47;;;;;;;;;;4981321;28;20262;-74
2023/04/09 04:46:06;;;;;;;31.73;18.20;;;;;;;;;;4981289;28;20183;-75
2023/04/09 04:48:32;;;;;;;33.27;18.43;;;;;;;;;;4988145;28;20175;-75
2023/04/09 04:50:58;;;;;;;32.67;18.63;;;;;;;;;;4985514;28;20649;-75
2023/04/09 04:53:23;;;;;;;29.37;17.83;;;;;;;;;;4989478;28;20203;-75
2023/04/09 04:55:48;;;;;;;27.97;16.20;;;;;;;;;;4992030;28;20222;-75
2023/04/09 04:58:13;;;;;;;31.80;18.50;;;;;;;;;;4989188;28;20602;-75
2023/04/09 05:00:39;;;;;;;27.70;17.33;;;;;;;;;;4990924;28;20266;-75
2023/04/09 05:03:04;;;;;;;26.70;16.47;;;;;;;;;;4993153;28;20207;-75
2023/04/09 05:05:29;;;;;;;32.07;17.37;;;;;;;;;;4990873;28;20182;-75
2023/04/09 05:07:55;;;;;;;29.70;17.80;;;;;;;;;;4993024;28;20258;-75
2023/04/09 05:10:20;;;;;;;36.33;19.27;;;;;;;;;;4993017;28;20210;-75
2023/04/09 05:12:45;;;;;;;33.43;18.90;;;;;;;;;;4990123;28;20227;-75
2023/04/09 05:15:10;;;;;;;38.03;19.13;;;;;;;;;;4990290;28;20204;-75
2023/04/09 05:17:36;;;;;;;36.07;18.10;;;;;;;;;;4991547;28;20172;-74
2023/04/09 05:20:01;;;;;;;35.97;18.90;;;;;;;;;;4992031;28;20183;-74
2023/04/09 05:22:26;;;;;;;33.80;18.90;;;;;;;;;;4993337;28;20211;-74
2023/04/09 05:24:52;;;;;;;33.23;18.50;;;;;;;;;;4991438;28;20187;-75
2023/04/09 05:27:18;;;;;;;29.80;18.07;;;;;;;;;;4992898;28;20187;-75
2023/04/09 05:29:43;;;;;;;35.40;17.70;;;;;;;;;;4990032;28;20560;-74
2023/04/09 05:32:08;;;;;;;36.97;18.50;;;;;;;;;;4989047;28;20342;-74
2023/04/09 05:34:34;;;;;;;33.43;20.17;;;;;;;;;;4986110;28;20613;-75
2023/04/09 05:36:59;;;;;;;36.10;18.10;;;;;;;;;;4989452;28;20660;-75
2023/04/09 05:39:25;;;;;;;32.80;19.10;;;;;;;;;;4991842;28;20171;-75
2023/04/09 05:41:51;;;;;;;33.03;17.50;;;;;;;;;;4992804;28;20219;-75
2023/04/09 05:44:16;;;;;;;36.47;18.17;;;;;;;;;;4986026;28;20574;-75
2023/04/09 05:46:41;;;;;;;35.63;19.00;;;;;;;;;;4985826;28;20176;-75
2023/04/09 05:49:06;;;;;;;30.87;17.03;;;;;;;;;;4988103;28;20253;-75
2023/04/09 05:51:32;;;;;;;36.73;19.23;;;;;;;;;;4987395;28;20628;-75
2023/04/09 05:53:58;;;;;;;37.97;20.17;;;;;;;;;;4981181;28;20241;-74
2023/04/09 05:56:23;;;;;;;35.57;19.07;;;;;;;;;;4997990;28;20222;-75
2023/04/09 05:58:49;;;;;;;35.43;18.77;;;;;;;;;;4990738;28;20176;-75
2023/04/09 06:01:14;;;;;;;40.30;20.17;;;;;;;;;;4997198;28;20171;-75
2023/04/09 06:03:39;;;;;;;33.63;17.87;;;;;;;;;;4995020;28;20219;-75
2023/04/09 06:06:04;;;;;;;45.27;21.20;;;;;;;;;;4993636;28;20494;-75
2023/04/09 06:08:30;;;;;;;45.00;21.40;;;;;;;;;;4997657;28;20180;-75
2023/04/09 06:10:55;;;;;;;48.40;22.83;;;;;;;;;;4995010;28;20187;-75
2023/04/09 06:13:20;;;;;;;47.40;22.37;;;;;;;;;;4995670;28;20199;-75
2023/04/09 06:15:46;;;;;;;45.27;21.13;;;;;;;;;;4995653;28;20234;-75
2023/04/09 06:18:12;;;;;;;38.90;20.67;;;;;;;;;;4994557;28;20203;-75
2023/04/09 06:20:37;;;;;;;47.40;22.77;;;;;;;;;;4993323;28;20242;-75
2023/04/09 06:23:02;;;;;;;40.83;21.27;;;;;;;;;;4995849;28;20200;-74
2023/04/09 06:25:27;;;;;;;43.23;21.50;;;;;;;;;;4995946;28;20668;-75
2023/04/09 06:27:52;;;;;;;37.07;20.53;;;;;;;;;;4994738;28;20188;-75
2023/04/09 06:30:17;;;;;;;42.20;22.27;;;;;;;;;;4995111;28;20180;-76
2023/04/09 06:32:44;;;;;;;47.70;25.00;;;;;;;;;;4990008;28;20554;-74
2023/04/09 06:35:09;;;;;;;52.90;26.00;;;;;;;;;;4991263;28;20210;-75
2023/04/09 06:37:35;;;;;;;47.23;25.37;;;;;;;;;;4985179;28;20176;-75
2023/04/09 06:40:00;;;;;;;54.93;27.70;;;;;;;;;;4989828;28;20262;-75
2023/04/09 06:42:25;;;;;;;52.03;25.90;;;;;;;;;;4995752;28;20619;-74
2023/04/09 06:44:50;;;;;;;53.27;25.67;;;;;;;;;;4989678;28;20618;-76
2023/04/09 06:47:16;;;;;;;44.87;24.00;;;;;;;;;;4986513;28;20172;-74
2023/04/09 06:49:41;;;;;;;46.77;22.43;;;;;;;;;;4989077;28;20168;-75
2023/04/09 06:52:06;;;;;;;50.20;25.93;;;;;;;;;;4983536;28;20195;-74
2023/04/09 06:54:31;;;;;;;47.47;24.90;;;;;;;;;;4994719;28;20690;-75
2023/04/09 06:56:57;;;;;;;47.07;24.73;;;;;;;;;;4988370;28;20232;-74
2023/04/09 06:59:22;;;;;;;54.77;26.57;;;;;;;;;;4991702;28;20199;-74
2023/04/09 07:01:47;;;;;;;47.50;25.07;;;;;;;;;;4991865;28;20294;-75
2023/04/09 07:04:12;;;;;;;47.33;23.43;;;;;;;;;;4996906;28;20270;-75
2023/04/09 07:06:39;;;;;;;48.33;25.10;;;;;;;;;;4996653;28;20234;-75
2023/04/09 07:09:04;;;;;;;50.27;25.50;;;;;;;;;;4986686;28;20231;-75
2023/04/09 07:11:29;;;;;;;50.37;25.67;;;;;;;;;;4993527;28;20194;-75
2023/04/09 07:13:55;;;;;;;46.10;25.97;;;;;;;;;;4988915;28;20183;-75
2023/04/09 07:16:20;;;;;;;47.20;24.93;;;;;;;;;;4987814;28;20626;-75
2023/04/09 07:18:46;;;;;;;49.90;24.73;;;;;;;;;;4989401;28;20263;-74
2023/04/09 07:21:11;;;;;;;45.00;23.77;;;;;;;;;;4988594;28;20713;-75
2023/04/09 07:23:36;;;;;;;39.10;21.93;;;;;;;;;;4987327;28;20271;-76
2023/04/09 07:26:05;;;;;;;43.70;23.90;;;;;;;;;;4987683;28;20180;-75
2023/04/09 07:28:30;;;;;;;41.17;22.43;;;;;;;;;;4990072;28;20194;-76
2023/04/09 07:30:56;;;;;;;38.13;21.03;;;;;;;;;;4990759;28;20282;-75
2023/04/09 07:33:21;;;;;;;36.67;20.53;;;;;;;;;;4986603;28;20583;-75
2023/04/09 07:35:46;;;;;;;39.63;21.90;;;;;;;;;;4993595;28;20200;-75
2023/04/09 07:38:11;;;;;;;38.17;20.37;;;;;;;;;;4988465;28;20211;-75
2023/04/09 07:40:37;;;;;;;38.23;21.23;;;;;;;;;;4994765;28;20167;-75
2023/04/09 07:43:02;;;;;;;34.10;19.43;;;;;;;;;;4989091;28;20200;-75
2023/04/09 07:45:27;;;;;;;35.40;18.30;;;;;;;;;;4993871;28;20184;-75
2023/04/09 07:47:53;;;;;;;31.57;17.07;;;;;;;;;;4991120;28;20229;-75
2023/04/09 07:50:18;;;;;;;30.17;16.70;;;;;;;;;;4994217;28;20221;-75
2023/04/09 07:52:43;;;;;;;27.53;15.30;;;;;;;;;;4989953;28;20203;-75
2023/04/09 07:55:08;;;;;;;27.33;15.97;;;;;;;;;;4992978;28;20226;-75
2023/04/09 07:57:34;;;;;;;26.90;14.50;;;;;;;;;;4993751;28;20168;-75
2023/04/09 07:59:59;;;;;;;29.53;16.73;;;;;;;;;;4993734;28;20172;-74
2023/04/09 08:02:25;;;;;;;28.90;15.47;;;;;;;;;;4993514;28;20215;-75
2023/04/09 08:04:50;;;;;;;27.87;16.07;;;;;;;;;;4992377;28;20175;-75
2023/04/09 08:07:16;;;;;;;29.70;17.27;;;;;;;;;;4992742;28;20172;-75
2023/04/09 08:09:41;;;;;;;24.50;15.23;;;;;;;;;;4987829;28;20176;-75
2023/04/09 08:12:06;;;;;;;25.88;16.40;;;;;;;;;;4989787;28;20203;-75
2023/04/09 08:14:31;;;;;;;27.47;15.93;;;;;;;;;;4994288;28;20656;-75
2023/04/09 08:16:56;;;;;;;27.27;15.20;;;;;;;;;;5004895;28;20182;-74
2023/04/09 08:19:22;;;;;;;25.55;15.07;;;;;;;;;;5015670;28;20180;-75
2023/04/09 08:21:48;;;;;;;22.88;14.20;;;;;;;;;;4993383;28;20200;-75
2023/04/09 08:24:13;;;;;;;24.58;14.40;;;;;;;;;;4991017;28;20183;-75
2023/04/09 08:26:39;;;;;;;24.88;15.38;;;;;;;;;;4993517;28;20210;-75
2023/04/09 08:29:05;;;;;;;22.27;13.65;;;;;;;;;;4991254;28;20187;-75
2023/04/09 08:31:30;;;;;;;23.98;14.45;;;;;;;;;;4993039;28;20175;-75
2023/04/09 08:33:56;;;;;;;24.42;14.43;;;;;;;;;;4992689;28;20598;-75
2023/04/09 08:36:21;;;;;;;22.45;13.25;;;;;;;;;;4992228;28;20365;-75
2023/04/09 08:38:46;;;;;;;24.40;14.38;;;;;;;;;;4991935;28;20176;-74
2023/04/09 08:41:19;;;;;;;24.55;14.93;;;;;;;;;;4992102;28;20607;-75
2023/04/09 08:43:45;;;;;;;23.75;14.50;;;;;;;;;;4987063;28;20188;-75
2023/04/09 08:46:11;;;;;;;23.95;14.85;;;;;;;;;;4991809;28;20726;-75
2023/04/09 08:48:37;;;;;;;26.05;14.63;;;;;;;;;;4988295;28;20218;-75
2023/04/09 08:51:02;;;;;;;24.70;15.13;;;;;;;;;;4993146;28;20257;-75
2023/04/09 08:53:27;;;;;;;24.92;14.45;;;;;;;;;;4993117;28;20673;-75
2023/04/09 08:55:53;;;;;;;25.60;15.25;;;;;;;;;;4987120;28;20723;-75
2023/04/09 08:58:18;;;;;;;29.98;17.20;;;;;;;;;;4985216;28;20182;-75
2023/04/09 09:00:43;;;;;;;24.80;15.65;;;;;;;;;;4979642;28;20187;-75
2023/04/09 09:03:10;;;;;;;27.42;15.90;;;;;;;;;;4993203;23;20239;-66
2023/04/09 09:05:42;;;;;;;30.50;16.55;;;;;;;;;;4973503;28;20592;-66
2023/04/09 09:08:09;;;;;;;26.63;15.73;;;;;;;;;;4982305;28;20526;-67
2023/04/09 09:10:37;;;;;;;25.30;14.00;;;;;;;;;;4985120;28;20191;-67
2023/04/09 09:13:14;;;;;;;24.17;14.93;;;;;;;;;;4973004;28;20299;-65
2023/04/09 09:15:40;;;;;;;23.98;14.48;;;;;;;;;;4966278;28;20218;-65
2023/04/09 09:18:06;;;;;;;23.65;14.80;;;;;;;;;;4969099;28;20294;-68
2023/04/09 09:20:31;;;;;;;22.63;14.88;;;;;;;;;;4962067;28;20195;-65
2023/04/09 09:22:56;;;;;;;23.77;15.13;;;;;;;;;;4968518;28;20212;-66
2023/04/09 09:25:23;;;;;;;25.13;16.08;;;;;;;;;;4964470;28;20177;-65
2023/04/09 09:27:48;;;;;;;26.23;15.90;;;;;;;;;;4970775;28;20208;-65
2023/04/09 09:30:24;;;;;;;26.65;17.20;;;;;;;;;;4974090;28;20219;-66
2023/04/09 09:32:53;;;;;;;25.83;16.90;;;;;;;;;;4982932;28;20601;-67
2023/04/09 09:35:19;;;;;;;26.95;17.45;;;;;;;;;;4970995;28;20288;-66
2023/04/09 09:37:44;;;;;;;27.60;17.23;;;;;;;;;;4967743;28;20267;-66
2023/04/09 09:40:09;;;;;;;24.33;15.80;;;;;;;;;;4972442;28;20188;-67
2023/04/09 09:42:35;;;;;;;26.13;17.13;;;;;;;;;;4965475;28;20660;-67
2023/04/09 09:45:00;;;;;;;27.27;17.05;;;;;;;;;;4971517;28;20188;-67
2023/04/09 09:47:28;;;;;;;28.75;19.55;;;;;;;;;;4967834;28;20161;-67
2023/04/09 09:49:54;;;;;;;26.67;17.40;;;;;;;;;;4969957;28;20264;-66
2023/04/09 09:52:21;;;;;;;29.90;17.27;;;;;;;;;;4963889;28;20264;-66
2023/04/09 09:54:51;;;;;;;28.63;17.75;;;;;;;;;;4970120;28;20206;-66
2023/04/09 09:57:17;;;;;;;25.77;17.67;;;;;;;;;;4965771;28;20654;-66
2023/04/09 09:59:49;;;;;;;23.02;15.80;;;;;;;;;;4971336;28;20534;-66
2023/04/09 10:02:18;;;;;;;25.27;17.90;;;;;;;;;;4974579;28;20219;-66
2023/04/09 10:04:44;;;;;;;26.40;17.48;;;;;;;;;;4973732;28;20522;-66
2023/04/09 10:07:09;;;;;;;28.30;16.70;;;;;;;;;;4972917;28;20186;-66
2023/04/09 10:09:36;;;;;;;25.33;18.65;;;;;;;;;;4971191;28;20255;-66
2023/04/09 10:12:03;;;;;;;27.95;17.33;;;;;;;;;;4974869;28;20243;-66
2023/04/09 10:14:29;;;;;;;25.27;16.13;;;;;;;;;;4971164;28;20588;-66
2023/04/09 10:16:54;;;;;;;25.27;17.23;;;;;;;;;;4965085;28;20184;-67
2023/04/09 10:19:21;;;;;;;25.02;16.70;;;;;;;;;;4969876;28;20176;-66
2023/04/09 10:21:46;;;;;;;25.40;17.08;;;;;;;;;;4970503;28;20192;-66
2023/04/09 10:24:11;;;;;;;24.98;17.73;;;;;;;;;;4973826;28;20715;-67
2023/04/09 10:26:40;;;;;;;24.98;17.13;;;;;;;;;;4967832;28;20275;-66
2023/04/09 10:29:07;;;;;;;26.70;17.98;;;;;;;;;;4966342;28;20729;-66
2023/04/09 10:31:59;;;;;;;26.05;17.60;;;;;;;;;;4973213;28;20180;-66
2023/04/09 10:34:26;;;;;;;26.40;17.75;;;;;;;;;;4964826;28;20202;-66
2023/04/09 10:36:55;;;;;;;26.02;17.80;;;;;;;;;;4972116;28;20226;-65
2023/04/09 10:39:20;;;;;;;27.30;17.35;;;;;;;;;;4969973;28;20176;-66
2023/04/09 10:41:47;;;;;;;29.08;18.52;;;;;;;;;;4964641;28;20195;-66
2023/04/09 10:44:19;;;;;;;25.98;17.27;;;;;;;;;;4972540;28;20173;-65
2023/04/09 10:46:44;;;;;;;27.17;19.33;;;;;;;;;;4960895;28;20220;-66
2023/04/09 10:49:17;;;;;;;26.23;17.88;;;;;;;;;;4970678;28;20177;-66
2023/04/09 10:52:01;;;;;;;27.65;19.08;;;;;;;;;;4969375;28;20180;-65
2023/04/09 10:54:33;;;;;;;24.67;15.93;;;;;;;;;;4973556;28;20657;-66
2023/04/09 10:57:12;;;;;;;25.73;17.20;;;;;;;;;;4964298;28;20187;-66
2023/04/09 10:59:41;;;;;;;28.00;18.85;;;;;;;;;;4967258;28;20568;-66
2023/04/09 11:02:07;;;;;;;27.88;18.80;;;;;;;;;;4971052;28;20248;-66
2023/04/09 11:04:55;;;;;;;30.20;19.23;;;;;;;;;;4974070;28;20251;-67
2023/04/09 11:07:21;;;;;;;27.90;19.13;;;;;;;;;;4973748;28;20208;-67
2023/04/09 11:09:46;;;;;;;24.63;17.90;;;;;;;;;;4973653;28;20176;-66
2023/04/09 11:12:11;;;;;;;25.40;18.10;;;;;;;;;;4970102;28;20204;-66
2023/04/09 11:14:36;;;;;;;24.00;17.83;;;;;;;;;;4968142;28;20287;-66
2023/04/09 11:17:02;;;;;;;26.17;17.80;;;;;;;;;;4966856;28;20501;-66
2023/04/09 11:19:27;;;;;;;25.65;16.38;;;;;;;;;;4964762;28;20653;-67
2023/04/09 11:21:52;;;;;;;22.63;15.85;;;;;;;;;;4973070;28;20755;-66
2023/04/09 11:24:18;;;;;;;21.80;16.08;;;;;;;;;;4972927;28;20514;-66
2023/04/09 11:26:44;;;;;;;19.63;15.37;;;;;;;;;;4967238;28;20604;-66
2023/04/09 11:29:09;;;;;;;23.40;16.23;;;;;;;;;;4965276;28;20636;-65
2023/04/09 11:31:35;;;;;;;20.20;15.10;;;;;;;;;;4971100;28;20168;-65
2023/04/09 11:34:00;;;;;;;21.48;15.55;;;;;;;;;;4972020;28;20621;-67
2023/04/09 11:36:29;;;;;;;23.48;16.20;;;;;;;;;;4968539;28;20325;-67
2023/04/09 11:38:54;;;;;;;22.48;16.30;;;;;;;;;;4964686;28;20604;-66
2023/04/09 11:41:35;;;;;;;19.67;13.73;;;;;;;;;;4964419;28;20180;-66
2023/04/09 11:44:02;;;;;;;20.83;14.70;;;;;;;;;;4970056;28;20204;-66
2023/04/09 11:46:28;;;;;;;19.52;14.63;;;;;;;;;;4967550;28;20180;-66
2023/04/09 11:48:55;;;;;;;20.70;15.15;;;;;;;;;;4966021;28;20212;-66
2023/04/09 11:51:20;;;;;;;21.58;15.30;;;;;;;;;;4971191;28;20232;-65
2023/04/09 11:53:47;;;;;;;20.58;14.98;;;;;;;;;;4966259;28;20276;-66
2023/04/09 11:56:12;;;;;;;22.90;15.23;;;;;;;;;;4968836;28;20295;-66
2023/04/09 11:58:37;;;;;;;22.40;15.55;;;;;;;;;;4970497;28;20256;-66
2023/04/09 12:01:02;;;;;;;22.23;16.25;;;;;;;;;;4964763;28;20483;-66
2023/04/09 12:03:29;;;;;;;20.05;15.60;;;;;;;;;;4965464;28;20212;-66
2023/04/09 12:05:54;;;;;;;21.85;15.32;;;;;;;;;;4970997;28;20193;-66
2023/04/09 12:08:22;;;;;;;20.80;14.68;;;;;;;;;;4972643;28;20176;-66
2023/04/09 12:10:47;;;;;;;21.30;16.33;;;;;;;;;;4972410;28;20177;-66
2023/04/09 12:13:12;;;;;;;21.02;14.73;;;;;;;;;;4972896;28;20682;-65
2023/04/09 12:15:40;;;;;;;21.13;13.95;;;;;;;;;;4972260;28;20208;-66
2023/04/09 12:18:09;;;;;;;19.27;14.60;;;;;;;;;;4972505;28;20263;-66
2023/04/09 12:20:41;;;;;;;17.98;13.73;;;;;;;;;;4971832;28;20226;-66
2023/04/09 12:23:07;;;;;;;21.42;15.60;;;;;;;;;;4984783;28;20699;-66
2023/04/09 12:25:34;;;;;;;16.73;13.68;;;;;;;;;;4972409;28;20243;-66
2023/04/09 12:28:00;;;;;;;21.23;14.73;;;;;;;;;;4972245;28;20173;-66
2023/04/09 12:30:25;;;;;;;21.48;15.32;;;;;;;;;;4970972;28;20214;-66
2023/04/09 12:32:51;;;;;;;17.20;13.00;;;;;;;;;;4973228;28;20613;-66
2023/04/09 12:35:17;;;;;;;21.38;15.65;;;;;;;;;;4971755;28;20271;-66
2023/04/09 12:37:43;;;;;;;19.23;14.55;;;;;;;;;;4972008;28;20307;-66
2023/04/09 12:40:08;;;;;;;21.50;14.38;;;;;;;;;;4971639;28;20255;-66
2023/04/09 12:42:33;;;;;;;18.48;14.10;;;;;;;;;;4969953;28;20196;-66
2023/04/09 12:44:58;;;;;;;22.27;15.55;;;;;;;;;;4968874;28;20187;-66
2023/04/09 12:47:24;;;;;;;24.63;15.67;;;;;;;;;;4970666;28;20184;-66
2023/04/09 12:49:49;;;;;;;27.95;18.35;;;;;;;;;;4971669;28;20419;-66
2023/04/09 12:52:15;;;;;;;21.00;16.02;;;;;;;;;;4971453;28;20204;-67
2023/04/09 12:54:40;;;;;;;22.08;16.35;;;;;;;;;;4970321;28;20196;-66
2023/04/09 12:57:05;;;;;;;18.42;14.63;;;;;;;;;;4972047;28;20183;-66
2023/04/09 12:59:31;;;;;;;21.40;15.30;;;;;;;;;;4970674;28;20701;-66
2023/04/09 13:01:56;;;;;;;20.40;14.32;;;;;;;;;;4963771;28;20255;-66
2023/04/09 13:04:21;;;;;;;19.73;15.50;;;;;;;;;;4977700;28;20188;-66
2023/04/09 13:06:47;;;;;;;20.83;15.73;;;;;;;;;;4969677;28;20184;-66
2023/04/09 13:09:12;;;;;;;22.30;16.73;;;;;;;;;;4974433;28;20426;-66
2023/04/09 13:11:37;;;;;;;18.85;14.20;;;;;;;;;;4971080;28;20195;-66
2023/04/09 13:14:03;;;;;;;19.98;15.35;;;;;;;;;;4973398;28;20255;-66
2023/04/09 13:16:28;;;;;;;19.10;14.33;;;;;;;;;;4970476;28;20208;-66
2023/04/09 13:18:53;;;;;;;19.57;14.23;;;;;;;;;;4968034;28;20517;-66
2023/04/09 13:21:18;;;;;;;17.90;14.70;;;;;;;;;;4973581;28;20458;-66
2023/04/09 13:23:43;;;;;;;16.77;13.85;;;;;;;;;;4975292;28;20449;-66
2023/04/09 13:26:09;;;;;;;21.65;14.50;;;;;;;;;;4971399;28;20332;-66
2023/04/09 13:28:35;;;;;;;17.75;14.35;;;;;;;;;;4964356;28;20566;-66
2023/04/09 13:31:00;;;;;;;20.95;13.52;;;;;;;;;;4973067;28;20195;-67
2023/04/09 13:33:26;;;;;;;17.00;13.52;;;;;;;;;;4969638;28;20207;-66
2023/04/09 13:35:51;;;;;;;14.50;11.13;;;;;;;;;;4972821;28;20593;-66
2023/04/09 13:38:16;;;;;;;15.68;12.27;;;;;;;;;;4968283;28;20477;-67
2023/04/09 13:40:41;;;;;;;15.63;12.13;;;;;;;;;;4973139;28;20522;-67
2023/04/09 13:43:06;;;;;;;21.20;13.30;;;;;;;;;;4966976;28;20525;-67
2023/04/09 13:45:32;;;;;;;17.57;12.70;;;;;;;;;;4968359;28;20455;-67
2023/04/09 13:47:57;;;;;;;19.27;14.55;;;;;;;;;;4963323;28;20406;-66
2023/04/09 13:50:22;;;;;;;17.93;13.50;;;;;;;;;;4971855;28;20536;-67
2023/04/09 13:52:47;;;;;;;19.77;13.88;;;;;;;;;;4968148;28;20447;-66
2023/04/09 13:55:12;;;;;;;17.33;13.13;;;;;;;;;;4970076;28;20255;-66
2023/04/09 13:57:37;;;;;;;14.90;11.17;;;;;;;;;;4968331;28;20185;-67
2023/04/09 14:00:04;;;;;;;16.37;12.27;;;;;;;;;;4971951;28;20406;-66
2023/04/09 14:02:29;;;;;;;15.73;12.32;;;;;;;;;;4967690;28;20469;-66
2023/04/09 14:04:55;;;;;;;17.20;12.45;;;;;;;;;;4968852;28;20682;-66
2023/04/09 14:07:21;;;;;;;17.77;12.70;;;;;;;;;;4965779;28;20274;-66
2023/04/09 14:09:46;;;;;;;17.10;11.85;;;;;;;;;;4966491;28;20263;-66